CAMK1: Grouse Creek nr Cameron KS

                                SHEF ID:       CAMK1     Grouse Creek nr Cameron KS
STATION TYPE:

PRECIP STAGE RIV-FLOW VOLTAGE BAT-LOAD
in ft cfs volt volt
Ccp-Rev Ccp-Rev Ccp-Rev Ccp-Rev Ccp-Rev
(America/Chicago)
04/27 00:00 0.00 10.70 295 12.90 12.38
04/27 01:00 0.00 10.65 286 12.88 12.37
04/27 02:00 0.01 10.60 277 12.86 12.36
04/27 03:00 0.00 10.53 265 12.86 12.34
04/27 04:00 0.00 10.48 257 12.83 12.34
04/27 05:00 0.00 10.45 252 12.83 12.32
04/27 06:00 0.00 10.44 251 12.82 12.31
04/27 07:00 0.00 10.42 247 12.81 12.29
04/27 08:00 0.00 10.37 240 13.41 12.65
04/27 09:00 0.00 10.36 238 13.71 13.23
04/27 10:00 0.00 10.33 233 13.49 13.05
04/27 11:00 0.00 10.30 229 13.58 13.08
04/27 12:00 0.00 10.28 226 14.11 13.03
04/27 13:00 0.00 10.24 220 13.55 13.30
04/27 14:00 0.00 10.20 214 13.91 13.06
04/27 15:00 0.00 10.16 209 13.55 13.07
04/27 16:00 0.00 10.17 210 13.52 13.05
04/27 17:00 0.00 10.17 210 13.59 13.11
04/27 18:00 0.00 10.15 207 13.75 13.09
04/27 19:00 0.00 10.13 205 13.49 12.94
04/27 20:00 0.00 10.11 202 13.22 12.81
04/27 21:00 0.00 10.10 199 12.99 12.56
04/27 22:00 0.00 10.09 196 12.91 12.44
04/27 23:00 0.00 10.08 193 12.88 12.40
Data processed at Tue 28Apr2026 04:43 GMT

NOTICE: If you are parsing this page

Please convert to using our Data API. Starting early 2026 we will be migrating to: https://water.usace.army.mil with modern pages rendered in JavaScript. When this migration completes you will no longer be able to scrape this page! CWMSDataAPI (CDA)

Timeseries IDs (TSIDs)

TSIDs used from left to right in the data table
CAME.Precip-Inc.Total.1Hour.1Hour.Ccp-Rev
CAME.Stage.Inst.1Hour.0.Ccp-Rev
CAME.Flow.Inst.1Hour.0.Ccp-Rev
CAME.Volt-Battery.Inst.1Hour.0.Ccp-Rev
CAME.Volt-Battery Load.Inst.1Hour.0.Ccp-Rev

                            

All information presented herein is the property of the government of the United States of America and may be revised or deleted at any time without prior notice. Dissemination of this information without the expressed written consent of the Public Affairs Office, Tulsa District U.S. Army Corps of Engineers is strictly prohibited. These data are gathered electronically and, as presented, have NOT undergone any form of quality control. These data are NOT guaranteed to be valid or correct.